createdAt,value
2022-11-22T00:02:19.820Z,52.20
2022-11-22T00:06:37.175Z,62.90
2022-11-22T00:10:54.333Z,56.80
2022-11-22T00:15:12.761Z,51.05
2022-11-22T00:19:30.297Z,56.30
2022-11-22T00:23:47.696Z,54.72
2022-11-22T00:28:04.883Z,57.15
2022-11-22T00:32:22.099Z,62.35
2022-11-22T00:36:39.352Z,46.22
2022-11-22T00:40:56.607Z,56.33
2022-11-22T00:45:13.880Z,50.85
2022-11-22T00:49:31.506Z,53.47
2022-11-22T00:53:48.984Z,53.67
2022-11-22T00:58:06.269Z,44.33
2022-11-22T01:02:23.527Z,58.87
2022-11-22T01:06:40.725Z,48.38
2022-11-22T01:11:01.622Z,47.85
2022-11-22T01:15:18.957Z,47.38
2022-11-22T01:19:36.251Z,44.47
2022-11-22T01:23:53.432Z,48.42
2022-11-22T01:28:11.101Z,50.72
2022-11-22T01:32:28.304Z,49.85
2022-11-22T01:36:45.494Z,50.55
2022-11-22T01:41:02.709Z,45.90
2022-11-22T01:45:32.236Z,46.50
2022-11-22T01:49:58.023Z,46.47
2022-11-22T01:54:19.502Z,46.08
2022-11-22T01:58:39.664Z,40.95
2022-11-22T02:03:00.873Z,43.53
2022-11-22T02:07:29.321Z,45.05
2022-11-22T02:16:06.875Z,37.50
2022-11-22T02:20:24.210Z,37.20
2022-11-22T02:24:58.904Z,34.83
2022-11-22T02:29:16.338Z,33.88
2022-11-22T02:33:33.632Z,44.17
2022-11-22T02:37:56.500Z,34.70
2022-11-22T02:42:14.027Z,32.38
2022-11-22T02:46:31.246Z,35.03
2022-11-22T02:50:48.523Z,33.65
2022-11-22T02:55:05.962Z,34.22
2022-11-22T02:59:23.126Z,40.30
2022-11-22T03:03:40.355Z,32.08
2022-11-22T03:07:57.551Z,44.15
2022-11-22T03:12:14.749Z,35.80
2022-11-22T03:16:32.083Z,36.15
2022-11-22T03:20:49.266Z,34.50
2022-11-22T03:25:06.957Z,29.42
2022-11-22T03:29:24.219Z,30.95
2022-11-22T03:33:41.437Z,30.50
2022-11-22T03:37:58.622Z,30.45
2022-11-22T03:42:21.269Z,31.88
2022-11-22T03:46:39.314Z,22.15
2022-11-22T03:51:06.768Z,28.00
2022-11-22T03:55:23.980Z,25.45
2022-11-22T03:59:41.151Z,26.25
2022-11-22T04:03:58.476Z,25.60
2022-11-22T04:08:15.803Z,29.77
2022-11-22T04:12:33.154Z,27.10
2022-11-22T04:16:50.431Z,24.03
2022-11-22T04:21:26.561Z,22.90
2022-11-22T04:25:46.192Z,36.45
2022-11-22T04:30:03.622Z,28.30
2022-11-22T04:34:20.831Z,26.47
2022-11-22T04:38:38.017Z,37.50
2022-11-22T04:43:13.931Z,31.35
2022-11-22T04:47:50.620Z,56.90
2022-11-22T04:52:28.260Z,47.38
2022-11-22T04:56:45.491Z,56.13
2022-11-22T05:01:03.298Z,49.45
2022-11-22T05:05:20.550Z,48.38
2022-11-22T05:09:37.750Z,40.90
2022-11-22T05:13:55.062Z,39.58
2022-11-22T05:18:12.973Z,41.45
2022-11-22T05:22:48.608Z,38.38
2022-11-22T05:27:05.849Z,39.58
2022-11-22T05:31:24.599Z,39.15
2022-11-22T05:35:41.860Z,38.17
2022-11-22T05:39:59.051Z,40.83
2022-11-22T05:44:16.205Z,40.13
2022-11-22T05:48:33.498Z,36.50
2022-11-22T05:52:50.767Z,41.70
2022-11-22T05:57:07.956Z,34.42
2022-11-22T06:01:25.681Z,41.33
2022-11-22T06:05:42.889Z,41.30
2022-11-22T06:10:00.148Z,41.28
2022-11-22T06:14:17.366Z,37.67
2022-11-22T06:18:35.422Z,36.85
2022-11-22T06:22:52.619Z,42.63
2022-11-22T06:27:09.977Z,44.33
2022-11-22T06:31:28.541Z,49.60
2022-11-22T06:35:45.834Z,42.15
2022-11-22T06:40:03.241Z,45.20
2022-11-22T06:44:20.444Z,222.83
2022-11-22T06:48:38.957Z,62.97
2022-11-22T06:52:56.146Z,60.67
2022-11-22T06:57:14.643Z,45.67
2022-11-22T07:01:33.332Z,56.85
2022-11-22T07:05:53.764Z,93.15
2022-11-22T07:10:10.933Z,75.97
2022-11-22T07:14:28.133Z,88.65
2022-11-22T07:18:46.092Z,69.00
2022-11-22T07:23:03.325Z,46.33
2022-11-22T07:27:20.583Z,64.18
2022-11-22T07:31:37.792Z,56.08
2022-11-22T07:35:55.239Z,59.10
2022-11-22T07:40:12.606Z,45.73
2022-11-22T07:44:29.773Z,49.97
2022-11-22T07:48:49.134Z,48.60
2022-11-22T07:53:06.322Z,45.33
2022-11-22T07:57:23.537Z,48.50
2022-11-22T08:01:40.786Z,49.22
2022-11-22T08:06:01.893Z,44.72
2022-11-22T08:10:19.868Z,46.75
2022-11-22T08:14:37.175Z,45.22
2022-11-22T08:18:54.576Z,39.80
2022-11-22T08:23:11.852Z,41.05
2022-11-22T08:27:29.073Z,52.53
2022-11-22T08:31:46.249Z,51.13
2022-11-22T08:36:03.787Z,43.53
2022-11-22T08:40:20.975Z,39.03
2022-11-22T08:44:38.259Z,39.63
2022-11-22T08:48:55.502Z,34.15
2022-11-22T08:53:12.703Z,33.88
2022-11-22T08:57:30.021Z,28.45
2022-11-22T09:01:47.309Z,34.85
2022-11-22T09:10:44.736Z,39.22
2022-11-22T09:15:01.932Z,35.97
2022-11-22T09:19:19.131Z,39.13
2022-11-22T09:23:37.091Z,33.85
2022-11-22T09:27:54.286Z,30.05
2022-11-22T09:32:11.823Z,39.60
2022-11-22T09:36:29.156Z,28.80
2022-11-22T09:40:47.205Z,56.28
2022-11-22T09:45:23.425Z,26.20
2022-11-22T09:49:59.172Z,16.48
2022-11-22T09:54:30.953Z,14.95
2022-11-22T09:59:12.747Z,17.38
2022-11-22T10:04:10.419Z,21.63
2022-11-22T10:08:55.443Z,14.43
2022-11-22T10:13:19.727Z,13.77
2022-11-22T10:18:02.377Z,15.15
2022-11-22T10:22:19.659Z,15.82
2022-11-22T10:26:38.846Z,19.83
2022-11-22T10:31:07.109Z,17.83
2022-11-22T10:35:43.072Z,16.47
2022-11-22T10:40:11.671Z,22.40
2022-11-22T10:44:47.399Z,25.55
2022-11-22T10:49:35.623Z,34.70
2022-11-22T10:54:22.626Z,18.60
2022-11-22T10:58:57.359Z,23.00
2022-11-22T11:03:26.969Z,29.63
2022-11-22T11:07:48.515Z,43.08
2022-11-22T11:12:31.197Z,23.27
2022-11-22T11:16:49.656Z,21.85
2022-11-22T11:21:10.070Z,10.73
2022-11-22T11:25:28.961Z,0.00
2022-11-22T11:29:51.255Z,0.00
2022-11-22T11:34:21.044Z,0.00
2022-11-22T11:38:56.662Z,0.00
2022-11-22T11:43:20.828Z,0.00
2022-11-22T11:47:38.075Z,0.00
2022-11-22T11:51:56.528Z,1.33
2022-11-22T11:56:44.883Z,0.88
2022-11-22T12:01:02.121Z,15.80
2022-11-22T12:05:19.296Z,15.35
2022-11-22T12:09:43.648Z,15.93
2022-11-22T12:14:19.550Z,14.95
2022-11-22T12:19:00.363Z,16.90
2022-11-22T12:23:51.747Z,17.35
2022-11-22T12:28:16.676Z,12.45
2022-11-22T12:32:41.791Z,14.10
2022-11-22T12:37:04.921Z,13.55
2022-11-22T12:41:27.663Z,18.25
2022-11-22T12:45:53.122Z,13.73
2022-11-22T12:50:40.226Z,11.15
2022-11-22T12:55:21.982Z,17.10
2022-11-22T12:59:50.953Z,11.32
2022-11-22T13:08:58.903Z,10.82
2022-11-22T13:13:27.427Z,19.52
2022-11-22T13:17:45.004Z,11.50
2022-11-22T13:22:21.074Z,10.98
2022-11-22T13:26:45.671Z,13.23
2022-11-22T13:31:13.849Z,14.75
2022-11-22T13:35:36.516Z,16.77
2022-11-22T13:39:54.074Z,13.18
2022-11-22T13:44:31.627Z,15.07
2022-11-22T13:48:51.876Z,13.10
2022-11-22T13:53:29.075Z,15.82
2022-11-22T13:57:46.249Z,15.82
2022-11-22T14:02:21.047Z,12.98
2022-11-22T14:06:38.804Z,10.35
2022-11-22T14:10:55.941Z,13.93
2022-11-22T14:15:56.849Z,12.85
2022-11-22T14:20:19.868Z,12.80
2022-11-22T14:24:57.984Z,14.52
2022-11-22T14:29:53.890Z,18.48
2022-11-22T14:34:15.724Z,15.38
2022-11-22T14:38:40.801Z,18.48
2022-11-22T14:43:26.082Z,43.35
2022-11-22T14:47:52.385Z,19.98
2022-11-22T14:52:36.463Z,33.40
2022-11-22T14:56:59.910Z,34.38
2022-11-22T15:01:35.752Z,18.23
2022-11-22T15:09:22.564Z,20.73
2022-11-22T15:11:15.115Z,17.42
2022-11-22T15:58:12.360Z,20.65
2022-11-22T16:02:32.368Z,20.80
2022-11-22T16:06:51.108Z,17.77
2022-11-22T16:15:37.177Z,18.60
2022-11-22T16:20:23.313Z,18.25
2022-11-22T16:24:40.562Z,17.58
2022-11-22T16:29:35.471Z,20.08
2022-11-22T16:33:54.027Z,18.35
2022-11-22T16:38:11.319Z,20.90
2022-11-22T16:42:28.639Z,22.75
2022-11-22T16:46:47.197Z,22.40
2022-11-22T16:55:22.742Z,20.42
2022-11-22T16:59:39.983Z,26.92
2022-11-22T17:03:58.223Z,22.77
2022-11-22T17:08:17.904Z,22.90
2022-11-22T17:12:35.290Z,27.35
2022-11-22T17:16:52.628Z,34.78
2022-11-22T17:21:37.074Z,35.35
2022-11-22T17:25:54.951Z,36.30
2022-11-22T17:30:12.663Z,45.95
2022-11-22T17:34:30.241Z,32.63
2022-11-22T17:38:47.657Z,31.07
2022-11-22T17:43:04.896Z,31.75
2022-11-22T17:47:22.167Z,27.20
2022-11-22T17:51:39.465Z,31.08
2022-11-22T17:56:10.041Z,27.95
2022-11-22T18:00:30.283Z,28.35
2022-11-22T18:04:47.757Z,29.38
2022-11-22T18:09:05.060Z,27.45
2022-11-22T18:13:22.640Z,24.73
2022-11-22T18:17:39.891Z,28.17
2022-11-22T18:21:57.123Z,32.17
2022-11-22T18:26:38.264Z,25.88
2022-11-22T18:30:53.322Z,28.58
2022-11-22T18:35:10.572Z,23.85
2022-11-22T18:39:30.458Z,22.70
2022-11-22T18:43:48.378Z,26.98
2022-11-22T18:48:06.707Z,32.13
2022-11-22T18:52:24.567Z,28.13
2022-11-22T18:56:41.814Z,37.13
2022-11-22T19:00:59.322Z,38.53
2022-11-22T19:05:18.281Z,35.43
2022-11-22T19:09:37.098Z,28.20
2022-11-22T19:13:54.298Z,31.13
2022-11-22T19:18:13.193Z,28.55
2022-11-22T19:22:30.691Z,32.50
2022-11-22T19:26:47.867Z,21.92
2022-11-22T19:31:11.684Z,25.25
2022-11-22T19:35:28.912Z,30.45
2022-11-22T19:39:48.531Z,37.53
2022-11-22T19:44:05.813Z,24.33
2022-11-22T19:48:23.132Z,22.45
2022-11-22T19:52:40.340Z,27.05
2022-11-22T19:56:58.011Z,23.48
2022-11-22T20:01:16.604Z,30.87
2022-11-22T20:05:34.281Z,22.15
2022-11-22T20:09:51.446Z,22.77
2022-11-22T20:14:09.441Z,25.80
2022-11-22T20:18:26.718Z,32.83
2022-11-22T20:22:43.987Z,35.80
2022-11-22T20:27:02.498Z,30.23
2022-11-22T20:31:20.415Z,31.10
2022-11-22T20:35:37.596Z,25.90
2022-11-22T20:39:54.794Z,31.85
2022-11-22T20:44:13.706Z,27.63
2022-11-22T20:48:31.956Z,22.17
2022-11-22T20:52:49.422Z,23.20
2022-11-22T20:57:06.621Z,28.95
2022-11-22T21:01:26.683Z,23.95
2022-11-22T21:05:50.359Z,24.58
2022-11-22T21:10:07.876Z,24.17
2022-11-22T21:14:25.066Z,26.10
2022-11-22T21:18:42.306Z,27.17
2022-11-22T21:22:59.792Z,21.70
2022-11-22T21:27:16.990Z,33.45
2022-11-22T21:31:34.185Z,27.05
2022-11-22T21:35:52.524Z,32.63
2022-11-22T21:44:27.246Z,38.65
2022-11-22T21:48:44.435Z,42.60
2022-11-22T21:53:01.943Z,46.50
2022-11-22T21:57:19.099Z,61.05
2022-11-22T22:01:36.602Z,32.72
2022-11-22T22:05:53.872Z,31.13
2022-11-22T22:10:12.134Z,24.02
2022-11-22T22:18:47.112Z,24.38
2022-11-22T22:23:04.333Z,36.97
2022-11-22T22:27:21.506Z,20.98
2022-11-22T22:31:38.713Z,21.00
2022-11-22T22:35:57.107Z,23.05
2022-11-22T22:40:15.041Z,29.50
2022-11-22T22:44:32.723Z,26.02
2022-11-22T22:48:50.459Z,36.07
2022-11-22T22:53:07.774Z,30.50
2022-11-22T22:57:24.956Z,26.60
2022-11-22T23:01:42.139Z,27.30
2022-11-22T23:05:59.570Z,31.70
2022-11-22T23:10:16.874Z,24.92
2022-11-22T23:14:34.072Z,26.70
2022-11-22T23:18:51.238Z,29.27
2022-11-22T23:23:08.459Z,36.55
2022-11-22T23:27:25.684Z,37.67
2022-11-22T23:31:42.880Z,36.95
2022-11-22T23:36:08.893Z,46.42
2022-11-22T23:40:26.307Z,32.13
2022-11-22T23:44:43.542Z,40.85
2022-11-22T23:49:01.769Z,42.53
2022-11-22T23:53:19.072Z,40.05
2022-11-22T23:57:36.249Z,29.95
